sensor_id;sensor_type;location;lat;lon;timestamp;pressure;altitude;pressure_sealevel;temperature;humidity
52591;BME280;38483;42.620;25.394;2023-12-04T00:01:17;97346.28;;;6.47;86.20
52591;BME280;38483;42.620;25.394;2023-12-04T00:03:45;97354.81;;;6.47;86.20
52591;BME280;38483;42.620;25.394;2023-12-04T00:06:12;97353.28;;;6.40;85.17
52591;BME280;38483;42.620;25.394;2023-12-04T00:08:40;97347.75;;;6.22;84.81
52591;BME280;38483;42.620;25.394;2023-12-04T00:11:07;97319.78;;;6.08;85.03
52591;BME280;38483;42.620;25.394;2023-12-04T00:13:34;97368.06;;;6.32;86.17
52591;BME280;38483;42.620;25.394;2023-12-04T00:16:02;97365.50;;;6.31;85.73
52591;BME280;38483;42.620;25.394;2023-12-04T00:18:29;97373.31;;;6.28;86.31
52591;BME280;38483;42.620;25.394;2023-12-04T00:20:57;97375.94;;;6.25;86.41
52591;BME280;38483;42.620;25.394;2023-12-04T00:23:24;97368.63;;;6.08;86.11
52591;BME280;38483;42.620;25.394;2023-12-04T00:25:51;97367.19;;;5.97;87.23
52591;BME280;38483;42.620;25.394;2023-12-04T00:28:18;97321.97;;;5.50;87.10
52591;BME280;38483;42.620;25.394;2023-12-04T00:30:46;97376.34;;;6.08;86.72
52591;BME280;38483;42.620;25.394;2023-12-04T00:33:14;97380.97;;;5.93;86.35
52591;BME280;38483;42.620;25.394;2023-12-04T00:35:41;97379.28;;;5.92;87.28
52591;BME280;38483;42.620;25.394;2023-12-04T00:38:08;97378.56;;;5.87;86.63
52591;BME280;38483;42.620;25.394;2023-12-04T00:40:35;97383.34;;;5.62;86.72
52591;BME280;38483;42.620;25.394;2023-12-04T00:43:02;97359.28;;;5.66;86.65
52591;BME280;38483;42.620;25.394;2023-12-04T00:45:29;97403.44;;;5.83;84.81
52591;BME280;38483;42.620;25.394;2023-12-04T00:47:57;97395.97;;;5.71;84.86
52591;BME280;38483;42.620;25.394;2023-12-04T00:50:24;97336.94;;;5.28;85.80
52591;BME280;38483;42.620;25.394;2023-12-04T00:52:51;97397.84;;;5.63;85.74
52591;BME280;38483;42.620;25.394;2023-12-04T00:55:18;97404.44;;;5.76;84.30
52591;BME280;38483;42.620;25.394;2023-12-04T00:57:46;97402.72;;;5.75;85.81
52591;BME280;38483;42.620;25.394;2023-12-04T01:00:14;97383.44;;;5.57;84.88
52591;BME280;38483;42.620;25.394;2023-12-04T01:02:41;97378.81;;;5.32;85.99
52591;BME280;38483;42.620;25.394;2023-12-04T01:05:08;97409.25;;;5.51;85.61
52591;BME280;38483;42.620;25.394;2023-12-04T01:07:36;97422.03;;;5.53;84.40
52591;BME280;38483;42.620;25.394;2023-12-04T01:10:04;97408.69;;;5.36;85.06
52591;BME280;38483;42.620;25.394;2023-12-04T01:12:32;97428.34;;;5.37;84.91
52591;BME280;38483;42.620;25.394;2023-12-04T01:14:59;97448.94;;;5.35;84.00
52591;BME280;38483;42.620;25.394;2023-12-04T01:17:26;97425.59;;;5.02;86.16
52591;BME280;38483;42.620;25.394;2023-12-04T01:19:53;97428.34;;;4.91;87.31
52591;BME280;38483;42.620;25.394;2023-12-04T01:22:20;97455.63;;;5.44;86.31
52591;BME280;38483;42.620;25.394;2023-12-04T01:24:47;97454.06;;;5.34;85.27
52591;BME280;38483;42.620;25.394;2023-12-04T01:27:14;97455.38;;;5.56;84.98
52591;BME280;38483;42.620;25.394;2023-12-04T01:29:42;97456.28;;;5.53;85.68
52591;BME280;38483;42.620;25.394;2023-12-04T01:32:09;97458.97;;;5.47;84.80
52591;BME280;38483;42.620;25.394;2023-12-04T01:34:36;97458.63;;;5.21;85.04
52591;BME280;38483;42.620;25.394;2023-12-04T01:37:03;97471.34;;;4.77;86.67
52591;BME280;38483;42.620;25.394;2023-12-04T01:39:30;97447.06;;;4.97;85.64
52591;BME280;38483;42.620;25.394;2023-12-04T01:41:58;97445.53;;;4.87;86.46
52591;BME280;38483;42.620;25.394;2023-12-04T01:44:25;97444.84;;;4.76;86.67
52591;BME280;38483;42.620;25.394;2023-12-04T01:46:52;97449.22;;;4.71;86.80
52591;BME280;38483;42.620;25.394;2023-12-04T01:49:19;97459.41;;;4.74;85.55
52591;BME280;38483;42.620;25.394;2023-12-04T01:51:47;97439.81;;;4.70;86.19
52591;BME280;38483;42.620;25.394;2023-12-04T01:54:15;97458.59;;;4.72;86.72
52591;BME280;38483;42.620;25.394;2023-12-04T01:56:42;97456.03;;;4.74;87.22
52591;BME280;38483;42.620;25.394;2023-12-04T01:59:10;97447.94;;;4.97;86.08
52591;BME280;38483;42.620;25.394;2023-12-04T02:01:37;97475.59;;;5.28;84.83
52591;BME280;38483;42.620;25.394;2023-12-04T02:04:05;97473.16;;;5.21;84.24
52591;BME280;38483;42.620;25.394;2023-12-04T02:06:33;97468.59;;;5.38;83.77
52591;BME280;38483;42.620;25.394;2023-12-04T02:09:01;97474.22;;;5.11;84.70
52591;BME280;38483;42.620;25.394;2023-12-04T02:11:28;97478.59;;;5.04;84.18
52591;BME280;38483;42.620;25.394;2023-12-04T02:13:55;97491.13;;;5.21;83.50
52591;BME280;38483;42.620;25.394;2023-12-04T02:16:23;97484.69;;;4.97;83.59
52591;BME280;38483;42.620;25.394;2023-12-04T02:18:53;97481.97;;;5.06;82.51
52591;BME280;38483;42.620;25.394;2023-12-04T02:21:20;97481.81;;;5.17;83.71
52591;BME280;38483;42.620;25.394;2023-12-04T02:23:49;97457.13;;;5.08;82.38
52591;BME280;38483;42.620;25.394;2023-12-04T02:26:22;97488.59;;;5.18;82.68
52591;BME280;38483;42.620;25.394;2023-12-04T02:28:55;97475.03;;;5.13;81.81
52591;BME280;38483;42.620;25.394;2023-12-04T02:31:27;97486.03;;;5.18;82.67
52591;BME280;38483;42.620;25.394;2023-12-04T02:33:56;97487.78;;;5.16;82.95
52591;BME280;38483;42.620;25.394;2023-12-04T02:36:25;97489.06;;;5.41;82.34
52591;BME280;38483;42.620;25.394;2023-12-04T02:38:53;97495.50;;;5.16;82.16
52591;BME280;38483;42.620;25.394;2023-12-04T02:41:21;97498.94;;;5.15;83.44
52591;BME280;38483;42.620;25.394;2023-12-04T02:43:48;97502.16;;;5.27;82.03
52591;BME280;38483;42.620;25.394;2023-12-04T02:46:15;97457.16;;;5.07;83.14
52591;BME280;38483;42.620;25.394;2023-12-04T02:48:42;97504.41;;;4.95;84.20
52591;BME280;38483;42.620;25.394;2023-12-04T02:51:10;97510.16;;;5.11;84.03
52591;BME280;38483;42.620;25.394;2023-12-04T02:53:38;97501.69;;;5.04;84.19
52591;BME280;38483;42.620;25.394;2023-12-04T02:56:05;97519.59;;;5.09;84.30
52591;BME280;38483;42.620;25.394;2023-12-04T02:58:32;97515.47;;;4.99;83.68
52591;BME280;38483;42.620;25.394;2023-12-04T03:01:01;97500.44;;;4.77;84.84
52591;BME280;38483;42.620;25.394;2023-12-04T03:03:28;97510.78;;;4.71;83.87
52591;BME280;38483;42.620;25.394;2023-12-04T03:05:55;97508.06;;;4.80;85.13
52591;BME280;38483;42.620;25.394;2023-12-04T03:08:22;97490.38;;;4.62;85.95
52591;BME280;38483;42.620;25.394;2023-12-04T03:10:49;97501.69;;;4.51;86.34
52591;BME280;38483;42.620;25.394;2023-12-04T03:13:16;97520.38;;;4.59;86.46
52591;BME280;38483;42.620;25.394;2023-12-04T03:15:43;97531.59;;;4.50;86.51
52591;BME280;38483;42.620;25.394;2023-12-04T03:18:11;97523.94;;;4.47;86.01
52591;BME280;38483;42.620;25.394;2023-12-04T03:20:38;97536.38;;;4.13;86.14
52591;BME280;38483;42.620;25.394;2023-12-04T03:23:06;97517.53;;;4.18;86.79
52591;BME280;38483;42.620;25.394;2023-12-04T03:25:33;97541.28;;;4.29;87.02
52591;BME280;38483;42.620;25.394;2023-12-04T03:28:01;97527.78;;;4.18;86.18
52591;BME280;38483;42.620;25.394;2023-12-04T03:30:28;97539.28;;;4.53;85.85
52591;BME280;38483;42.620;25.394;2023-12-04T03:32:55;97543.41;;;4.63;84.84
52591;BME280;38483;42.620;25.394;2023-12-04T03:35:22;97545.03;;;4.67;85.05
52591;BME280;38483;42.620;25.394;2023-12-04T03:37:49;97529.06;;;4.49;85.56
52591;BME280;38483;42.620;25.394;2023-12-04T03:40:19;97541.78;;;4.56;86.04
52591;BME280;38483;42.620;25.394;2023-12-04T03:42:46;97533.38;;;4.47;85.92
52591;BME280;38483;42.620;25.394;2023-12-04T03:45:13;97539.16;;;4.61;84.91
52591;BME280;38483;42.620;25.394;2023-12-04T03:47:40;97537.19;;;4.76;84.25
52591;BME280;38483;42.620;25.394;2023-12-04T03:50:08;97533.78;;;4.77;83.39
52591;BME280;38483;42.620;25.394;2023-12-04T03:52:35;97525.41;;;4.65;83.75
52591;BME280;38483;42.620;25.394;2023-12-04T03:55:02;97528.03;;;4.60;84.69
52591;BME280;38483;42.620;25.394;2023-12-04T03:57:30;97536.44;;;4.71;83.63
52591;BME280;38483;42.620;25.394;2023-12-04T03:59:57;97544.06;;;4.74;82.56
52591;BME280;38483;42.620;25.394;2023-12-04T04:02:24;97539.09;;;4.65;84.31
52591;BME280;38483;42.620;25.394;2023-12-04T04:04:51;97527.91;;;4.69;82.50
52591;BME280;38483;42.620;25.394;2023-12-04T04:07:19;97530.97;;;4.91;81.84
52591;BME280;38483;42.620;25.394;2023-12-04T04:09:46;97552.50;;;4.82;80.78
52591;BME280;38483;42.620;25.394;2023-12-04T04:12:14;97538.97;;;4.73;80.38
52591;BME280;38483;42.620;25.394;2023-12-04T04:14:41;97561.19;;;4.72;80.29
52591;BME280;38483;42.620;25.394;2023-12-04T04:17:08;97553.72;;;4.59;81.06
52591;BME280;38483;42.620;25.394;2023-12-04T04:19:35;97562.19;;;4.62;81.79
52591;BME280;38483;42.620;25.394;2023-12-04T04:22:03;97568.94;;;4.69;81.28
52591;BME280;38483;42.620;25.394;2023-12-04T04:24:30;97552.63;;;4.75;80.87
52591;BME280;38483;42.620;25.394;2023-12-04T04:26:57;97582.22;;;4.99;80.88
52591;BME280;38483;42.620;25.394;2023-12-04T04:29:24;97570.22;;;4.97;80.64
52591;BME280;38483;42.620;25.394;2023-12-04T04:31:51;97575.44;;;4.94;80.30
52591;BME280;38483;42.620;25.394;2023-12-04T04:34:19;97551.91;;;4.65;80.62
52591;BME280;38483;42.620;25.394;2023-12-04T04:36:47;97569.22;;;4.51;79.56
52591;BME280;38483;42.620;25.394;2023-12-04T04:39:14;97537.06;;;4.26;79.75
52591;BME280;38483;42.620;25.394;2023-12-04T04:41:41;97577.13;;;4.33;80.67
52591;BME280;38483;42.620;25.394;2023-12-04T04:44:08;97588.69;;;4.64;80.87
52591;BME280;38483;42.620;25.394;2023-12-04T04:46:36;97592.13;;;4.63;80.67
52591;BME280;38483;42.620;25.394;2023-12-04T04:49:05;97552.53;;;4.20;81.45
52591;BME280;38483;42.620;25.394;2023-12-04T04:51:35;97591.41;;;4.52;79.68
52591;BME280;38483;42.620;25.394;2023-12-04T04:54:04;97576.66;;;4.68;79.98
52591;BME280;38483;42.620;25.394;2023-12-04T04:56:31;97586.25;;;4.54;79.01
52591;BME280;38483;42.620;25.394;2023-12-04T04:58:58;97535.28;;;4.31;79.66
52591;BME280;38483;42.620;25.394;2023-12-04T05:01:26;97571.72;;;4.54;79.25
52591;BME280;38483;42.620;25.394;2023-12-04T05:03:53;97589.31;;;4.78;78.76
52591;BME280;38483;42.620;25.394;2023-12-04T05:06:21;97570.97;;;4.46;79.59
52591;BME280;38483;42.620;25.394;2023-12-04T05:08:49;97559.13;;;4.38;79.66
52591;BME280;38483;42.620;25.394;2023-12-04T05:11:19;97582.38;;;4.24;80.82
52591;BME280;38483;42.620;25.394;2023-12-04T05:13:47;97578.84;;;4.34;80.61
52591;BME280;38483;42.620;25.394;2023-12-04T05:16:14;97572.13;;;4.24;81.17
52591;BME280;38483;42.620;25.394;2023-12-04T05:18:41;97586.47;;;4.39;79.37
52591;BME280;38483;42.620;25.394;2023-12-04T05:21:10;97577.75;;;4.53;78.60
52591;BME280;38483;42.620;25.394;2023-12-04T05:23:42;97598.16;;;4.59;79.76
52591;BME280;38483;42.620;25.394;2023-12-04T05:26:10;97593.88;;;4.61;77.90
52591;BME280;38483;42.620;25.394;2023-12-04T05:28:37;97599.72;;;4.69;77.57
52591;BME280;38483;42.620;25.394;2023-12-04T05:31:05;97605.03;;;4.57;79.29
52591;BME280;38483;42.620;25.394;2023-12-04T05:33:32;97609.34;;;4.54;78.85
52591;BME280;38483;42.620;25.394;2023-12-04T05:35:59;97607.34;;;4.75;78.30
52591;BME280;38483;42.620;25.394;2023-12-04T05:38:27;97604.09;;;4.63;79.53
52591;BME280;38483;42.620;25.394;2023-12-04T05:40:54;97609.13;;;4.69;79.12
52591;BME280;38483;42.620;25.394;2023-12-04T05:43:21;97594.81;;;4.54;77.70
52591;BME280;38483;42.620;25.394;2023-12-04T05:45:48;97588.22;;;4.35;76.73
52591;BME280;38483;42.620;25.394;2023-12-04T05:48:18;97610.09;;;4.60;77.76
52591;BME280;38483;42.620;25.394;2023-12-04T05:50:45;97623.94;;;4.47;76.59
52591;BME280;38483;42.620;25.394;2023-12-04T05:53:13;97613.19;;;4.20;75.76
52591;BME280;38483;42.620;25.394;2023-12-04T05:55:40;97617.34;;;4.30;76.80
52591;BME280;38483;42.620;25.394;2023-12-04T05:58:07;97621.56;;;4.34;77.19
52591;BME280;38483;42.620;25.394;2023-12-04T06:00:34;97623.41;;;4.23;77.22
52591;BME280;38483;42.620;25.394;2023-12-04T06:03:01;97621.59;;;4.29;76.32
52591;BME280;38483;42.620;25.394;2023-12-04T06:05:28;97617.31;;;4.31;76.74
52591;BME280;38483;42.620;25.394;2023-12-04T06:07:56;97635.81;;;4.57;76.61
52591;BME280;38483;42.620;25.394;2023-12-04T06:10:24;97640.19;;;4.48;76.40
52591;BME280;38483;42.620;25.394;2023-12-04T06:12:53;97621.47;;;4.40;76.76
52591;BME280;38483;42.620;25.394;2023-12-04T06:15:20;97639.91;;;4.69;76.39
52591;BME280;38483;42.620;25.394;2023-12-04T06:17:47;97584.81;;;4.33;76.02
52591;BME280;38483;42.620;25.394;2023-12-04T06:20:14;97641.84;;;4.53;76.57
52591;BME280;38483;42.620;25.394;2023-12-04T06:22:41;97654.53;;;4.62;76.07
52591;BME280;38483;42.620;25.394;2023-12-04T06:25:09;97656.19;;;4.66;76.54
52591;BME280;38483;42.620;25.394;2023-12-04T06:27:37;97657.56;;;4.91;75.14
52591;BME280;38483;42.620;25.394;2023-12-04T06:30:06;97667.72;;;5.01;75.40
52591;BME280;38483;42.620;25.394;2023-12-04T06:32:34;97671.22;;;4.93;74.81
52591;BME280;38483;42.620;25.394;2023-12-04T06:35:01;97674.41;;;5.09;74.84
52591;BME280;38483;42.620;25.394;2023-12-04T06:37:30;97676.03;;;5.16;74.49
52591;BME280;38483;42.620;25.394;2023-12-04T06:40:00;97681.44;;;4.98;73.89
52591;BME280;38483;42.620;25.394;2023-12-04T06:42:30;97679.50;;;5.15;73.47
52591;BME280;38483;42.620;25.394;2023-12-04T06:44:57;97680.59;;;4.97;73.91
52591;BME280;38483;42.620;25.394;2023-12-04T06:47:25;97678.22;;;4.84;74.21
52591;BME280;38483;42.620;25.394;2023-12-04T06:49:52;97640.00;;;4.63;75.13
52591;BME280;38483;42.620;25.394;2023-12-04T06:52:19;97684.19;;;4.83;73.97
52591;BME280;38483;42.620;25.394;2023-12-04T06:54:46;97697.72;;;4.95;74.13
52591;BME280;38483;42.620;25.394;2023-12-04T06:57:13;97639.47;;;4.38;74.39
52591;BME280;38483;42.620;25.394;2023-12-04T06:59:42;97685.09;;;4.79;72.84
52591;BME280;38483;42.620;25.394;2023-12-04T07:02:09;97698.97;;;4.64;73.16
52591;BME280;38483;42.620;25.394;2023-12-04T07:04:36;97664.28;;;4.36;75.11
52591;BME280;38483;42.620;25.394;2023-12-04T07:07:04;97694.72;;;4.62;75.26
52591;BME280;38483;42.620;25.394;2023-12-04T07:09:34;97707.56;;;4.60;74.06
52591;BME280;38483;42.620;25.394;2023-12-04T07:12:01;97670.09;;;4.47;72.91
52591;BME280;38483;42.620;25.394;2023-12-04T07:14:30;97708.31;;;4.68;73.70
52591;BME280;38483;42.620;25.394;2023-12-04T07:16:57;97694.00;;;4.52;74.83
52591;BME280;38483;42.620;25.394;2023-12-04T07:19:24;97696.38;;;4.67;72.87
52591;BME280;38483;42.620;25.394;2023-12-04T07:21:51;97708.31;;;4.71;73.83
52591;BME280;38483;42.620;25.394;2023-12-04T07:24:18;97703.56;;;4.38;73.87
52591;BME280;38483;42.620;25.394;2023-12-04T07:26:45;97722.09;;;4.61;73.07
52591;BME280;38483;42.620;25.394;2023-12-04T07:29:12;97726.25;;;4.71;73.00
52591;BME280;38483;42.620;25.394;2023-12-04T07:31:41;97729.97;;;4.46;72.95
52591;BME280;38483;42.620;25.394;2023-12-04T07:34:08;97722.13;;;4.58;72.92
52591;BME280;38483;42.620;25.394;2023-12-04T07:36:37;97665.31;;;4.17;72.74
52591;BME280;38483;42.620;25.394;2023-12-04T07:39:04;97728.91;;;4.65;72.62
52591;BME280;38483;42.620;25.394;2023-12-04T07:41:34;97727.94;;;4.72;72.60
52591;BME280;38483;42.620;25.394;2023-12-04T07:44:01;97722.19;;;4.55;72.26
52591;BME280;38483;42.620;25.394;2023-12-04T07:46:29;97739.84;;;4.79;72.26
52591;BME280;38483;42.620;25.394;2023-12-04T07:48:56;97698.19;;;4.58;70.17
52591;BME280;38483;42.620;25.394;2023-12-04T07:51:23;97734.69;;;4.81;70.58
52591;BME280;38483;42.620;25.394;2023-12-04T07:53:50;97735.63;;;4.72;71.57
52591;BME280;38483;42.620;25.394;2023-12-04T07:56:18;97733.16;;;4.66;71.75
52591;BME280;38483;42.620;25.394;2023-12-04T07:58:45;97704.84;;;4.74;70.73
52591;BME280;38483;42.620;25.394;2023-12-04T08:01:12;97741.28;;;5.00;71.14
52591;BME280;38483;42.620;25.394;2023-12-04T08:03:39;97702.19;;;4.81;69.84
52591;BME280;38483;42.620;25.394;2023-12-04T08:06:07;97745.59;;;4.98;69.73
52591;BME280;38483;42.620;25.394;2023-12-04T08:08:34;97736.31;;;4.88;70.96
52591;BME280;38483;42.620;25.394;2023-12-04T08:11:01;97742.47;;;4.72;70.36
52591;BME280;38483;42.620;25.394;2023-12-04T08:13:28;97758.50;;;4.92;69.48
52591;BME280;38483;42.620;25.394;2023-12-04T08:15:55;97738.16;;;4.77;71.36
52591;BME280;38483;42.620;25.394;2023-12-04T08:18:22;97742.19;;;4.97;71.63
52591;BME280;38483;42.620;25.394;2023-12-04T08:20:49;97711.44;;;4.94;71.16
52591;BME280;38483;42.620;25.394;2023-12-04T08:23:17;97725.69;;;5.17;71.21
52591;BME280;38483;42.620;25.394;2023-12-04T08:25:44;97693.22;;;5.13;71.02
52591;BME280;38483;42.620;25.394;2023-12-04T08:28:14;97748.22;;;5.54;69.85
52591;BME280;38483;42.620;25.394;2023-12-04T08:30:41;97740.78;;;5.38;70.06
52591;BME280;38483;42.620;25.394;2023-12-04T08:33:08;97722.03;;;5.30;69.90
52591;BME280;38483;42.620;25.394;2023-12-04T08:35:36;97752.47;;;5.57;69.80
52591;BME280;38483;42.620;25.394;2023-12-04T08:38:03;97748.53;;;5.35;69.67
52591;BME280;38483;42.620;25.394;2023-12-04T08:40:30;97715.59;;;5.02;70.00
52591;BME280;38483;42.620;25.394;2023-12-04T08:42:57;97742.56;;;5.33;70.38
52591;BME280;38483;42.620;25.394;2023-12-04T08:45:25;97725.94;;;4.95;70.96
52591;BME280;38483;42.620;25.394;2023-12-04T08:47:52;97744.75;;;4.97;69.70
52591;BME280;38483;42.620;25.394;2023-12-04T08:50:19;97731.38;;;4.71;71.73
52591;BME280;38483;42.620;25.394;2023-12-04T08:52:46;97759.88;;;5.19;70.79
52591;BME280;38483;42.620;25.394;2023-12-04T08:55:13;97717.50;;;4.87;70.09
52591;BME280;38483;42.620;25.394;2023-12-04T08:57:40;97753.50;;;5.45;71.18
52591;BME280;38483;42.620;25.394;2023-12-04T09:00:08;97693.25;;;5.10;70.93
52591;BME280;38483;42.620;25.394;2023-12-04T09:02:36;97756.03;;;5.50;71.45
52591;BME280;38483;42.620;25.394;2023-12-04T09:05:17;97754.84;;;5.69;70.33
52591;BME280;38483;42.620;25.394;2023-12-04T09:07:45;97752.38;;;5.64;70.55
52591;BME280;38483;42.620;25.394;2023-12-04T09:10:15;97754.72;;;5.78;71.16
52591;BME280;38483;42.620;25.394;2023-12-04T09:13:02;97747.09;;;5.73;70.84
52591;BME280;38483;42.620;25.394;2023-12-04T09:15:29;97757.09;;;5.93;70.26
52591;BME280;38483;42.620;25.394;2023-12-04T09:17:58;97769.19;;;5.87;71.19
52591;BME280;38483;42.620;25.394;2023-12-04T09:20:26;97758.63;;;6.03;70.03
52591;BME280;38483;42.620;25.394;2023-12-04T09:22:53;97763.78;;;6.03;70.84
52591;BME280;38483;42.620;25.394;2023-12-04T09:25:30;97723.84;;;5.81;71.04
52591;BME280;38483;42.620;25.394;2023-12-04T09:27:57;97753.91;;;5.76;71.93
52591;BME280;38483;42.620;25.394;2023-12-04T09:30:25;97746.81;;;5.93;71.78
52591;BME280;38483;42.620;25.394;2023-12-04T09:32:52;97747.84;;;5.80;70.10
52591;BME280;38483;42.620;25.394;2023-12-04T09:35:19;97744.25;;;5.92;71.77
52591;BME280;38483;42.620;25.394;2023-12-04T09:37:47;97731.44;;;5.90;72.58
52591;BME280;38483;42.620;25.394;2023-12-04T09:40:17;97726.34;;;5.87;72.45
52591;BME280;38483;42.620;25.394;2023-12-04T09:42:45;97743.16;;;6.08;73.09
52591;BME280;38483;42.620;25.394;2023-12-04T09:45:12;97729.81;;;5.83;73.17
52591;BME280;38483;42.620;25.394;2023-12-04T09:47:41;97734.50;;;5.57;72.98
52591;BME280;38483;42.620;25.394;2023-12-04T09:50:09;97711.06;;;5.20;74.42
52591;BME280;38483;42.620;25.394;2023-12-04T09:52:37;97721.41;;;5.16;75.05
52591;BME280;38483;42.620;25.394;2023-12-04T09:55:04;97731.88;;;5.60;74.53
52591;BME280;38483;42.620;25.394;2023-12-04T09:57:33;97726.84;;;5.54;74.80
52591;BME280;38483;42.620;25.394;2023-12-04T10:00:02;97735.34;;;5.57;74.08
52591;BME280;38483;42.620;25.394;2023-12-04T10:02:38;97728.09;;;5.85;72.63
52591;BME280;38483;42.620;25.394;2023-12-04T10:05:09;97746.03;;;5.88;71.68
52591;BME280;38483;42.620;25.394;2023-12-04T10:07:36;97741.97;;;5.72;72.70
52591;BME280;38483;42.620;25.394;2023-12-04T10:10:05;97741.59;;;5.96;71.64
52591;BME280;38483;42.620;25.394;2023-12-04T10:12:32;97749.09;;;6.08;71.93
52591;BME280;38483;42.620;25.394;2023-12-04T10:15:07;97722.22;;;5.75;71.89
52591;BME280;38483;42.620;25.394;2023-12-04T10:17:37;97728.13;;;5.81;71.40
52591;BME280;38483;42.620;25.394;2023-12-04T10:20:09;97715.13;;;5.93;70.47
52591;BME280;38483;42.620;25.394;2023-12-04T10:22:52;97725.88;;;5.61;70.42
52591;BME280;38483;42.620;25.394;2023-12-04T10:25:20;97736.44;;;5.98;71.34
52591;BME280;38483;42.620;25.394;2023-12-04T10:27:48;97736.00;;;6.23;70.04
52591;BME280;38483;42.620;25.394;2023-12-04T10:30:26;97719.59;;;6.30;69.87
52591;BME280;38483;42.620;25.394;2023-12-04T10:32:56;97722.28;;;6.24;69.04
52591;BME280;38483;42.620;25.394;2023-12-04T10:35:32;97746.06;;;6.35;68.38
52591;BME280;38483;42.620;25.394;2023-12-04T10:38:00;97710.50;;;6.11;69.16
52591;BME280;38483;42.620;25.394;2023-12-04T10:40:27;97719.56;;;6.32;67.60
52591;BME280;38483;42.620;25.394;2023-12-04T10:45:37;97717.97;;;6.26;67.97
52591;BME280;38483;42.620;25.394;2023-12-04T10:48:06;97726.28;;;5.90;69.24
52591;BME280;38483;42.620;25.394;2023-12-04T10:50:35;97739.41;;;6.25;69.31
52591;BME280;38483;42.620;25.394;2023-12-04T10:53:09;97720.94;;;6.02;69.05
52591;BME280;38483;42.620;25.394;2023-12-04T10:55:37;97737.78;;;6.18;69.69
52591;BME280;38483;42.620;25.394;2023-12-04T10:58:09;97673.25;;;5.86;68.74
52591;BME280;38483;42.620;25.394;2023-12-04T11:00:44;97723.81;;;6.34;68.37
52591;BME280;38483;42.620;25.394;2023-12-04T11:03:18;97725.19;;;6.05;69.86
52591;BME280;38483;42.620;25.394;2023-12-04T11:05:55;97731.47;;;6.37;68.73
52591;BME280;38483;42.620;25.394;2023-12-04T11:08:23;97711.25;;;6.16;69.58
52591;BME280;38483;42.620;25.394;2023-12-04T11:10:59;97721.44;;;6.22;67.39
52591;BME280;38483;42.620;25.394;2023-12-04T11:13:34;97725.97;;;6.55;68.45
52591;BME280;38483;42.620;25.394;2023-12-04T11:16:11;97691.38;;;6.26;64.95
52591;BME280;38483;42.620;25.394;2023-12-04T11:18:43;97730.81;;;6.26;66.66
52591;BME280;38483;42.620;25.394;2023-12-04T11:21:11;97704.75;;;6.44;65.96
52591;BME280;38483;42.620;25.394;2023-12-04T11:23:40;97735.22;;;6.66;65.09
52591;BME280;38483;42.620;25.394;2023-12-04T11:26:10;97717.22;;;6.18;66.45
52591;BME280;38483;42.620;25.394;2023-12-04T11:28:38;97726.66;;;6.19;67.17
52591;BME280;38483;42.620;25.394;2023-12-04T11:31:06;97700.97;;;6.18;66.98
52591;BME280;38483;42.620;25.394;2023-12-04T11:33:37;97654.09;;;6.02;66.77
52591;BME280;38483;42.620;25.394;2023-12-04T11:36:08;97731.31;;;6.46;66.06
52591;BME280;38483;42.620;25.394;2023-12-04T11:38:44;97719.88;;;6.59;66.80
52591;BME280;38483;42.620;25.394;2023-12-04T11:41:19;97738.72;;;6.62;66.42
52591;BME280;38483;42.620;25.394;2023-12-04T11:43:55;97716.19;;;6.73;67.17
52591;BME280;38483;42.620;25.394;2023-12-04T11:46:24;97701.81;;;6.63;66.80
52591;BME280;38483;42.620;25.394;2023-12-04T11:48:57;97721.50;;;6.65;67.50
52591;BME280;38483;42.620;25.394;2023-12-04T11:54:17;97734.59;;;6.53;66.42
52591;BME280;38483;42.620;25.394;2023-12-04T11:59:37;97729.88;;;6.75;66.85
52591;BME280;38483;42.620;25.394;2023-12-04T12:02:07;97728.50;;;6.58;67.59
52591;BME280;38483;42.620;25.394;2023-12-04T12:04:35;97729.03;;;6.74;66.87
52591;BME280;38483;42.620;25.394;2023-12-04T12:07:05;97723.50;;;6.51;68.02
52591;BME280;38483;42.620;25.394;2023-12-04T12:09:33;97723.00;;;6.32;69.26
52591;BME280;38483;42.620;25.394;2023-12-04T12:12:01;97729.09;;;6.25;68.39
52591;BME280;38483;42.620;25.394;2023-12-04T12:14:29;97724.81;;;6.26;68.82
52591;BME280;38483;42.620;25.394;2023-12-04T12:17:00;97732.09;;;6.50;68.69
52591;BME280;38483;42.620;25.394;2023-12-04T12:19:28;97705.56;;;6.46;68.68
52591;BME280;38483;42.620;25.394;2023-12-04T12:21:56;97727.09;;;6.41;69.54
52591;BME280;38483;42.620;25.394;2023-12-04T12:24:24;97732.22;;;6.42;69.12
52591;BME280;38483;42.620;25.394;2023-12-04T12:26:54;97735.63;;;6.44;67.23
52591;BME280;38483;42.620;25.394;2023-12-04T12:29:22;97723.81;;;6.33;67.96
52591;BME280;38483;42.620;25.394;2023-12-04T12:31:50;97716.41;;;6.16;68.12
52591;BME280;38483;42.620;25.394;2023-12-04T12:34:17;97728.59;;;6.52;68.62
52591;BME280;38483;42.620;25.394;2023-12-04T12:36:45;97736.00;;;6.23;67.44
52591;BME280;38483;42.620;25.394;2023-12-04T12:39:13;97724.66;;;5.86;68.73
52591;BME280;38483;42.620;25.394;2023-12-04T12:41:49;97739.63;;;6.13;69.56
52591;BME280;38483;42.620;25.394;2023-12-04T12:44:16;97738.91;;;6.05;66.92
52591;BME280;38483;42.620;25.394;2023-12-04T12:46:47;97742.53;;;5.92;68.32
52591;BME280;38483;42.620;25.394;2023-12-04T12:49:18;97713.38;;;5.95;68.31
52591;BME280;38483;42.620;25.394;2023-12-04T12:52:05;97729.31;;;6.13;69.02
52591;BME280;38483;42.620;25.394;2023-12-04T12:54:33;97707.19;;;5.51;69.29
52591;BME280;38483;42.620;25.394;2023-12-04T12:57:01;97728.72;;;5.43;69.69
52591;BME280;38483;42.620;25.394;2023-12-04T12:59:29;97711.13;;;5.17;69.85
52591;BME280;38483;42.620;25.394;2023-12-04T13:01:56;97729.56;;;5.43;69.55
52591;BME280;38483;42.620;25.394;2023-12-04T13:04:40;97734.28;;;5.70;69.52
52591;BME280;38483;42.620;25.394;2023-12-04T13:07:10;97715.38;;;5.74;69.42
52591;BME280;38483;42.620;25.394;2023-12-04T13:09:38;97654.44;;;5.31;68.76
52591;BME280;38483;42.620;25.394;2023-12-04T13:12:06;97737.13;;;5.52;69.38
52591;BME280;38483;42.620;25.394;2023-12-04T13:14:34;97744.81;;;5.54;70.25